Terminal Aerodrome Forecast
Issued by NWS Upton, NY

Home | Current Version | Previous Version | Text Only | Print | Product List | Glossary On
Versions: 1 2 3 4 5 6 7 8 9 10 11 12 13 14 15 16 17 18 19 20 21 22 23 24
333
FTUS41 KOKX 090548
TAFBDR
TAF
KBDR 090548Z 0906/1006 02007KT 6SM -SN BR BKN015 OVC035
     FM090800 02006KT 6SM BR OVC012
     FM091300 04008KT P6SM OVC015
     FM092200 05006KT P6SM OVC015
     FM100300 05004KT 2SM -SN BR BKN007 OVC010=

USA.gov is the U.S. government's official web portal to all federal, state and local government web resources and services.